createdAt,value
2017-12-08T00:00:47.296Z,8.50
2017-12-08T00:03:14.948Z,8.50
2017-12-08T00:05:42.582Z,8.50
2017-12-08T00:08:10.179Z,8.60
2017-12-08T00:10:37.791Z,8.60
2017-12-08T00:13:05.366Z,8.60
2017-12-08T00:15:32.999Z,8.60
2017-12-08T00:18:01.368Z,8.60
2017-12-08T00:20:29.862Z,8.60
2017-12-08T00:23:06.013Z,8.50
2017-12-08T00:25:36.583Z,8.60
2017-12-08T00:28:07.229Z,8.60
2017-12-08T00:30:34.877Z,8.40
2017-12-08T00:33:02.458Z,8.40
2017-12-08T00:35:30.026Z,8.30
2017-12-08T00:37:57.655Z,8.20
2017-12-08T00:40:25.227Z,8.10
2017-12-08T00:42:52.851Z,8.10
2017-12-08T00:45:21.230Z,8.00
2017-12-08T00:47:48.820Z,8.00
2017-12-08T00:50:16.461Z,7.90
2017-12-08T00:52:44.080Z,7.90
2017-12-08T00:55:11.710Z,7.90
2017-12-08T00:57:39.285Z,7.90
2017-12-08T01:00:06.879Z,7.80
2017-12-08T01:02:34.510Z,7.80
2017-12-08T01:05:02.123Z,7.70
2017-12-08T01:07:29.796Z,7.60
2017-12-08T01:09:57.418Z,7.50
2017-12-08T01:20:03.591Z,7.30
2017-12-08T01:22:31.245Z,7.30
2017-12-08T01:24:58.907Z,7.30
2017-12-08T01:27:26.548Z,7.30
2017-12-08T01:29:54.205Z,7.30
2017-12-08T01:32:21.805Z,7.30
2017-12-08T01:34:49.503Z,7.30
2017-12-08T01:37:17.894Z,7.20
2017-12-08T01:39:46.265Z,7.20
2017-12-08T01:42:14.749Z,7.20
2017-12-08T01:44:43.127Z,7.30
2017-12-08T01:47:11.547Z,7.30
2017-12-08T01:49:39.138Z,7.30
2017-12-08T01:52:06.832Z,7.30
2017-12-08T01:54:35.240Z,7.30
2017-12-08T01:57:02.861Z,7.30
2017-12-08T01:59:30.732Z,7.30
2017-12-08T02:01:58.364Z,7.30
2017-12-08T02:04:26.545Z,7.40
2017-12-08T02:06:54.182Z,7.40
2017-12-08T02:09:22.277Z,7.40
2017-12-08T02:11:49.865Z,7.40
2017-12-08T02:14:17.529Z,7.40
2017-12-08T02:16:45.781Z,7.40
2017-12-08T02:19:13.381Z,7.50
2017-12-08T02:21:41.025Z,7.50
2017-12-08T02:24:09.553Z,7.40
2017-12-08T02:26:37.625Z,7.40
2017-12-08T02:29:05.212Z,7.40
2017-12-08T02:31:32.816Z,7.30
2017-12-08T02:34:00.480Z,7.30
2017-12-08T02:36:29.561Z,7.20
2017-12-08T02:38:57.215Z,7.20
2017-12-08T02:41:26.435Z,7.20
2017-12-08T02:43:54.141Z,7.20
2017-12-08T02:46:22.653Z,7.20
2017-12-08T02:48:51.253Z,7.20
2017-12-08T02:51:20.401Z,7.20
2017-12-08T02:53:48.098Z,7.20
2017-12-08T02:56:15.770Z,7.20
2017-12-08T02:58:44.145Z,7.20
2017-12-08T03:01:12.575Z,7.20
2017-12-08T03:03:40.944Z,7.20
2017-12-08T03:06:08.609Z,7.20
2017-12-08T03:08:36.229Z,7.20
2017-12-08T03:11:04.636Z,7.20
2017-12-08T03:13:32.272Z,7.20
2017-12-08T03:15:59.903Z,7.20
2017-12-08T03:18:27.925Z,7.20
2017-12-08T03:20:55.530Z,7.20
2017-12-08T03:23:23.637Z,7.30
2017-12-08T03:25:52.024Z,7.30
2017-12-08T03:28:19.669Z,7.20
2017-12-08T03:30:47.311Z,7.30
2017-12-08T03:33:14.929Z,7.30
2017-12-08T03:35:42.572Z,7.30
2017-12-08T03:38:10.186Z,7.30
2017-12-08T03:40:38.081Z,7.30
2017-12-08T03:43:08.021Z,7.30
2017-12-08T03:45:35.660Z,7.30
2017-12-08T03:48:04.072Z,7.30
2017-12-08T03:50:31.734Z,7.30
2017-12-08T03:52:59.395Z,7.30
2017-12-08T03:55:27.160Z,7.30
2017-12-08T03:57:54.905Z,7.30
2017-12-08T04:00:22.612Z,7.30
2017-12-08T04:02:50.218Z,7.30
2017-12-08T04:05:17.889Z,7.40
2017-12-08T04:07:45.511Z,7.30
2017-12-08T04:10:13.158Z,7.30
2017-12-08T04:12:40.762Z,7.40
2017-12-08T04:15:09.186Z,7.40
2017-12-08T04:17:36.784Z,7.40
2017-12-08T04:20:04.396Z,7.40
2017-12-08T04:22:32.036Z,7.40
2017-12-08T04:24:59.648Z,7.40
2017-12-08T04:27:27.285Z,7.40
2017-12-08T04:29:54.901Z,7.40
2017-12-08T04:32:22.613Z,7.40
2017-12-08T04:34:51.012Z,7.50
2017-12-08T04:37:18.628Z,7.50
2017-12-08T04:39:46.302Z,7.50
2017-12-08T04:42:13.932Z,7.50
2017-12-08T04:44:42.817Z,7.50
2017-12-08T04:47:11.205Z,7.50
2017-12-08T04:49:38.823Z,7.50
2017-12-08T04:52:06.472Z,7.50
2017-12-08T04:54:34.061Z,7.50
2017-12-08T04:57:02.469Z,7.50
2017-12-08T04:59:30.113Z,7.50
2017-12-08T05:01:58.308Z,7.40
2017-12-08T05:04:26.528Z,7.50
2017-12-08T05:06:54.185Z,7.50
2017-12-08T05:09:21.954Z,7.50
2017-12-08T05:11:49.562Z,7.50
2017-12-08T05:14:18.142Z,7.50
2017-12-08T05:16:45.801Z,7.50
2017-12-08T05:19:13.452Z,7.50
2017-12-08T05:21:41.065Z,7.50
2017-12-08T05:24:08.803Z,7.50
2017-12-08T05:26:36.442Z,7.50
2017-12-08T05:29:04.096Z,7.50
2017-12-08T05:31:31.757Z,7.50
2017-12-08T05:34:00.151Z,7.50
2017-12-08T05:36:27.814Z,7.50
2017-12-08T05:38:56.277Z,7.50
2017-12-08T05:41:24.738Z,7.50
2017-12-08T05:43:52.383Z,7.40
2017-12-08T05:46:20.034Z,7.50
2017-12-08T05:48:47.701Z,7.50
2017-12-08T05:51:15.369Z,7.40
2017-12-08T05:53:43.029Z,7.40
2017-12-08T05:56:10.655Z,7.40
2017-12-08T05:58:38.344Z,7.40
2017-12-08T06:01:05.976Z,7.40
2017-12-08T06:03:33.599Z,7.50
2017-12-08T06:06:01.257Z,7.50
2017-12-08T06:08:28.885Z,7.50
2017-12-08T06:10:56.566Z,7.50
2017-12-08T06:13:24.684Z,7.50
2017-12-08T06:15:52.379Z,7.50
2017-12-08T06:18:20.017Z,7.50
2017-12-08T06:20:47.660Z,7.40
2017-12-08T06:23:16.263Z,7.40
2017-12-08T06:25:43.881Z,7.40
2017-12-08T06:28:11.544Z,7.40
2017-12-08T06:30:39.167Z,7.40
2017-12-08T06:33:06.857Z,7.40
2017-12-08T06:35:34.513Z,7.40
2017-12-08T06:38:02.176Z,7.40
2017-12-08T06:40:29.886Z,7.40
2017-12-08T06:42:58.273Z,7.40
2017-12-08T06:45:26.002Z,7.40
2017-12-08T06:47:53.729Z,7.40
2017-12-08T06:50:21.463Z,7.30
2017-12-08T06:52:49.080Z,7.30
2017-12-08T06:55:16.788Z,7.30
2017-12-08T06:57:44.469Z,7.30
2017-12-08T07:00:12.121Z,7.30
2017-12-08T07:02:39.773Z,7.20
2017-12-08T07:05:07.412Z,7.20
2017-12-08T07:07:35.065Z,7.20
2017-12-08T07:10:02.673Z,7.20
2017-12-08T07:12:30.325Z,7.10
2017-12-08T07:14:57.933Z,7.10
2017-12-08T07:17:25.555Z,7.10
2017-12-08T07:19:53.218Z,7.10
2017-12-08T07:22:20.817Z,7.10
2017-12-08T07:24:48.492Z,7.00
2017-12-08T07:27:16.128Z,7.00
2017-12-08T07:29:43.801Z,7.00
2017-12-08T07:32:11.436Z,7.00
2017-12-08T07:34:39.055Z,7.00
2017-12-08T07:37:07.486Z,7.00
2017-12-08T07:39:35.129Z,7.00
2017-12-08T07:42:02.857Z,7.10
2017-12-08T07:44:31.230Z,7.10
2017-12-08T07:46:59.220Z,7.10
2017-12-08T07:49:26.833Z,7.10
2017-12-08T07:51:54.470Z,7.10
2017-12-08T07:54:22.157Z,7.20
2017-12-08T07:56:49.988Z,7.10
2017-12-08T07:59:17.678Z,7.20
2017-12-08T08:01:46.608Z,7.10
2017-12-08T08:04:14.373Z,7.10
2017-12-08T08:06:42.073Z,7.10
2017-12-08T08:09:09.737Z,7.20
2017-12-08T08:11:37.461Z,7.20
2017-12-08T08:14:05.121Z,7.30
2017-12-08T08:16:33.565Z,7.30
2017-12-08T08:19:01.191Z,7.30
2017-12-08T08:21:28.842Z,7.30
2017-12-08T08:23:56.451Z,7.40
2017-12-08T08:26:24.102Z,7.40
2017-12-08T08:28:51.805Z,7.40
2017-12-08T08:31:20.281Z,7.40
2017-12-08T08:33:47.959Z,7.30
2017-12-08T08:36:15.562Z,7.30
2017-12-08T08:38:43.334Z,7.20
2017-12-08T08:41:10.974Z,7.10
2017-12-08T08:43:39.431Z,7.10
2017-12-08T08:46:07.085Z,7.10
2017-12-08T08:48:34.692Z,7.00
2017-12-08T08:51:02.337Z,7.10
2017-12-08T08:53:29.970Z,7.10
2017-12-08T08:55:57.617Z,7.10
2017-12-08T08:58:26.060Z,7.20
2017-12-08T09:00:53.828Z,7.10
2017-12-08T09:03:21.454Z,7.20
2017-12-08T09:05:49.095Z,7.20
2017-12-08T09:08:16.813Z,7.20
2017-12-08T09:10:44.429Z,7.30
2017-12-08T09:13:12.108Z,7.40
2017-12-08T09:15:39.800Z,7.50
2017-12-08T09:18:07.825Z,7.50
2017-12-08T09:20:35.473Z,7.50
2017-12-08T09:23:03.091Z,7.50
2017-12-08T09:25:30.732Z,7.40
2017-12-08T09:27:58.349Z,7.40
2017-12-08T09:30:26.793Z,7.30
2017-12-08T09:32:54.463Z,7.30
2017-12-08T09:35:22.482Z,7.20
2017-12-08T09:37:50.133Z,7.20
2017-12-08T09:40:17.926Z,7.20
2017-12-08T09:42:45.654Z,7.10
2017-12-08T09:45:14.078Z,7.10
2017-12-08T09:47:41.732Z,7.10
2017-12-08T09:50:09.428Z,7.20
2017-12-08T09:52:37.486Z,7.30
2017-12-08T09:55:05.101Z,7.50
2017-12-08T09:57:32.788Z,7.60
2017-12-08T10:00:00.446Z,7.60
2017-12-08T10:02:28.074Z,7.70
2017-12-08T10:04:56.496Z,7.70
2017-12-08T10:07:24.149Z,7.70
2017-12-08T10:09:51.842Z,7.80
2017-12-08T10:12:19.445Z,7.80
2017-12-08T10:14:47.082Z,7.90
2017-12-08T10:17:15.541Z,8.20
2017-12-08T10:19:43.169Z,8.20
2017-12-08T10:22:11.312Z,8.50
2017-12-08T10:24:39.770Z,8.80
2017-12-08T10:27:07.417Z,8.70
2017-12-08T10:29:35.078Z,8.80
2017-12-08T10:32:02.735Z,8.90
2017-12-08T10:34:30.442Z,8.90
2017-12-08T10:36:58.072Z,8.90
2017-12-08T10:39:25.693Z,8.90
2017-12-08T10:41:53.420Z,8.90
2017-12-08T10:44:21.809Z,8.80
2017-12-08T10:46:49.525Z,8.80
2017-12-08T10:49:17.242Z,8.70
2017-12-08T10:51:44.841Z,8.70
2017-12-08T10:54:12.580Z,8.60
2017-12-08T10:56:40.350Z,8.60
2017-12-08T10:59:08.010Z,8.60
2017-12-08T11:01:35.650Z,8.70
2017-12-08T11:04:03.317Z,8.90
2017-12-08T11:06:30.949Z,9.00
2017-12-08T11:09:00.149Z,9.10
2017-12-08T11:11:28.562Z,9.00
2017-12-08T11:13:56.177Z,9.00
2017-12-08T11:16:23.935Z,9.10
2017-12-08T11:18:51.556Z,9.00
2017-12-08T11:21:19.276Z,8.90
2017-12-08T11:23:46.880Z,8.70
2017-12-08T11:26:14.501Z,8.60
2017-12-08T11:28:42.950Z,8.30
2017-12-08T11:31:10.588Z,8.30
2017-12-08T11:33:38.257Z,8.10
2017-12-08T11:36:06.010Z,8.00
2017-12-08T11:38:33.705Z,7.80
2017-12-08T11:41:01.342Z,7.60
2017-12-08T11:43:29.021Z,7.50
2017-12-08T11:45:56.669Z,7.40
2017-12-08T11:48:24.354Z,7.20
2017-12-08T11:50:52.037Z,7.10
2017-12-08T11:53:20.461Z,6.90
2017-12-08T11:55:48.086Z,6.90
2017-12-08T11:58:15.809Z,6.80
2017-12-08T12:00:43.433Z,6.80
2017-12-08T12:03:11.173Z,6.70
2017-12-08T12:05:39.578Z,6.70
2017-12-08T12:08:07.266Z,6.60
2017-12-08T12:10:34.964Z,6.60
2017-12-08T12:13:03.364Z,6.60
2017-12-08T12:15:31.028Z,6.60
2017-12-08T12:17:58.705Z,6.60
2017-12-08T12:20:26.480Z,6.50
2017-12-08T12:22:54.148Z,6.50
2017-12-08T12:25:21.830Z,6.50
2017-12-08T12:27:49.524Z,6.50
2017-12-08T12:30:17.261Z,6.50
2017-12-08T12:32:44.977Z,6.50
2017-12-08T12:35:12.673Z,6.50
2017-12-08T12:37:40.376Z,6.50
2017-12-08T12:40:08.005Z,6.40
2017-12-08T12:42:35.697Z,6.50
2017-12-08T12:45:03.442Z,6.40
2017-12-08T12:47:31.063Z,6.40
2017-12-08T12:49:58.787Z,6.40
2017-12-08T12:52:27.173Z,6.40
2017-12-08T12:54:54.845Z,6.30
2017-12-08T12:57:22.513Z,6.40
2017-12-08T12:59:50.176Z,6.40
2017-12-08T13:02:17.858Z,6.30
2017-12-08T13:04:45.503Z,6.30
2017-12-08T13:07:13.133Z,6.30
2017-12-08T13:09:40.764Z,6.20
2017-12-08T13:12:08.492Z,6.30
2017-12-08T13:14:36.187Z,6.20
2017-12-08T13:17:03.912Z,6.20
2017-12-08T13:19:31.642Z,6.20
2017-12-08T13:21:59.388Z,6.10
2017-12-08T13:24:27.088Z,6.10
2017-12-08T13:26:55.457Z,6.10
2017-12-08T13:29:23.017Z,6.10
2017-12-08T13:31:50.622Z,6.10
2017-12-08T13:34:18.212Z,6.10
2017-12-08T13:36:45.931Z,6.10
2017-12-08T13:39:13.573Z,6.10
2017-12-08T13:41:41.189Z,6.00
2017-12-08T13:44:08.799Z,6.10
2017-12-08T13:46:37.629Z,6.00
2017-12-08T13:49:05.193Z,6.00
2017-12-08T13:51:32.811Z,6.00
2017-12-08T13:54:12.279Z,6.00
2017-12-08T13:56:57.144Z,6.00
2017-12-08T13:59:24.807Z,6.00
2017-12-08T14:01:52.420Z,5.90
2017-12-08T14:04:20.098Z,5.90
2017-12-08T14:06:48.445Z,5.90
2017-12-08T14:09:16.090Z,5.90
2017-12-08T14:11:43.736Z,5.90
2017-12-08T14:14:11.374Z,5.90
2017-12-08T14:16:38.922Z,5.80
2017-12-08T14:19:06.493Z,5.80
2017-12-08T14:21:34.121Z,5.70
2017-12-08T14:24:01.716Z,5.70
2017-12-08T14:26:29.421Z,5.70
2017-12-08T14:28:56.973Z,5.60
2017-12-08T14:31:24.610Z,5.60
2017-12-08T14:33:52.268Z,5.50
2017-12-08T14:36:19.898Z,5.50
2017-12-08T14:38:47.737Z,5.50
2017-12-08T14:41:15.454Z,5.60
2017-12-08T14:43:43.328Z,5.60
2017-12-08T14:46:10.920Z,5.60
2017-12-08T14:48:38.502Z,5.60
2017-12-08T14:51:06.888Z,5.50
2017-12-08T14:53:34.581Z,5.50
2017-12-08T14:56:02.165Z,5.50
2017-12-08T14:58:29.803Z,5.60
2017-12-08T15:00:57.437Z,5.60
2017-12-08T15:03:25.783Z,5.70
2017-12-08T15:05:53.497Z,5.70
2017-12-08T15:08:21.860Z,5.80
2017-12-08T15:10:50.216Z,5.80
2017-12-08T15:13:19.244Z,5.90
2017-12-08T15:16:05.835Z,5.90
2017-12-08T15:18:33.403Z,5.90
2017-12-08T15:21:00.985Z,5.90
2017-12-08T15:23:28.612Z,5.90
2017-12-08T15:25:56.184Z,5.90
2017-12-08T15:28:23.761Z,5.90
2017-12-08T15:30:51.414Z,5.90
2017-12-08T15:33:18.998Z,5.90
2017-12-08T15:35:46.611Z,5.90
2017-12-08T15:38:14.974Z,5.90
2017-12-08T15:40:42.649Z,5.90
2017-12-08T15:43:10.267Z,5.90
2017-12-08T15:45:37.889Z,5.90
2017-12-08T15:48:05.567Z,5.90
2017-12-08T15:50:33.125Z,5.90
2017-12-08T15:53:01.740Z,5.90
2017-12-08T15:55:29.359Z,5.90
2017-12-08T15:57:57.027Z,6.00
2017-12-08T16:00:24.591Z,6.00
2017-12-08T16:02:52.242Z,6.00
2017-12-08T16:05:19.940Z,6.00
2017-12-08T16:07:47.605Z,6.00
2017-12-08T16:10:15.995Z,6.00
2017-12-08T16:12:43.694Z,6.00
2017-12-08T16:15:11.296Z,6.00
2017-12-08T16:17:39.482Z,6.00
2017-12-08T16:20:07.085Z,6.00
2017-12-08T16:22:34.698Z,6.00
2017-12-08T16:25:02.322Z,6.00
2017-12-08T16:27:29.931Z,6.00
2017-12-08T16:29:57.590Z,6.00
2017-12-08T16:32:25.171Z,6.00
2017-12-08T16:34:52.848Z,6.00
2017-12-08T16:37:21.302Z,6.00
2017-12-08T16:39:48.914Z,6.00
2017-12-08T16:42:16.546Z,6.00
2017-12-08T16:44:44.140Z,6.10
2017-12-08T16:47:11.802Z,6.00
2017-12-08T16:49:39.435Z,6.00
2017-12-08T16:52:07.124Z,6.10
2017-12-08T16:54:34.772Z,6.00
2017-12-08T16:57:02.386Z,6.00
2017-12-08T16:59:30.052Z,6.00
2017-12-08T17:01:57.633Z,6.00
2017-12-08T17:04:26.001Z,6.00
2017-12-08T17:06:53.665Z,6.00
2017-12-08T17:09:21.240Z,5.90
2017-12-08T17:11:49.647Z,5.90
2017-12-08T17:14:17.257Z,5.80
2017-12-08T17:16:44.924Z,5.80
2017-12-08T17:19:12.530Z,5.80
2017-12-08T17:21:40.140Z,5.80
2017-12-08T17:24:07.766Z,5.80
2017-12-08T17:26:35.356Z,5.70
2017-12-08T17:29:02.971Z,5.70
2017-12-08T17:31:30.533Z,5.60
2017-12-08T17:33:58.441Z,5.60
2017-12-08T17:36:26.039Z,5.50
2017-12-08T17:38:53.618Z,5.50
2017-12-08T17:41:21.261Z,5.50
2017-12-08T17:43:48.875Z,5.50
2017-12-08T17:46:16.509Z,5.60
2017-12-08T17:48:44.284Z,5.60
2017-12-08T17:51:12.001Z,5.60
2017-12-08T17:53:39.622Z,5.60
2017-12-08T17:56:07.203Z,5.70
2017-12-08T17:58:34.863Z,5.70
2017-12-08T18:01:02.438Z,5.70
2017-12-08T18:03:30.889Z,5.70
2017-12-08T18:05:58.527Z,5.70
2017-12-08T18:08:26.505Z,5.70
2017-12-08T18:10:54.088Z,5.70
2017-12-08T18:13:21.646Z,5.60
2017-12-08T18:15:49.282Z,5.60
2017-12-08T18:18:16.912Z,5.60
2017-12-08T18:20:44.525Z,5.70
2017-12-08T18:23:12.086Z,5.60
2017-12-08T18:25:40.166Z,5.60
2017-12-08T18:28:07.730Z,5.60
2017-12-08T18:30:35.370Z,5.60
2017-12-08T18:33:02.994Z,5.60
2017-12-08T18:35:31.386Z,5.40
2017-12-08T18:37:59.034Z,5.30
2017-12-08T18:40:26.603Z,5.20
2017-12-08T18:42:54.218Z,5.10
2017-12-08T18:45:22.611Z,4.80
2017-12-08T18:47:50.220Z,4.80
2017-12-08T18:50:17.865Z,4.80
2017-12-08T18:52:45.503Z,4.80
2017-12-08T18:55:13.120Z,4.70
2017-12-08T18:57:40.759Z,4.80
2017-12-08T19:00:08.375Z,4.80
2017-12-08T19:02:35.973Z,4.80
2017-12-08T19:05:03.530Z,4.80
2017-12-08T19:07:32.586Z,4.70
2017-12-08T19:10:00.221Z,4.70
2017-12-08T19:12:27.887Z,4.70
2017-12-08T19:14:55.566Z,4.70
2017-12-08T19:17:23.248Z,4.70
2017-12-08T19:19:50.852Z,4.70
2017-12-08T19:22:18.553Z,4.70
2017-12-08T19:24:46.184Z,4.60
2017-12-08T19:27:13.808Z,4.60
2017-12-08T19:29:41.454Z,4.60
2017-12-08T19:32:09.075Z,4.50
2017-12-08T19:34:36.703Z,4.60
2017-12-08T19:37:04.303Z,4.50
2017-12-08T19:39:31.965Z,4.50
2017-12-08T19:41:59.684Z,4.50
2017-12-08T19:44:27.408Z,4.50
2017-12-08T19:46:56.025Z,4.50
2017-12-08T19:49:23.906Z,4.40
2017-12-08T19:51:51.576Z,4.40
2017-12-08T19:54:19.156Z,4.40
2017-12-08T19:56:47.675Z,4.30
2017-12-08T19:59:15.341Z,4.30
2017-12-08T20:01:43.826Z,4.20
2017-12-08T20:04:11.482Z,4.20
2017-12-08T20:06:39.104Z,4.10
2017-12-08T20:09:06.764Z,4.10
2017-12-08T20:11:34.369Z,4.00
2017-12-08T20:14:02.010Z,4.00
2017-12-08T20:16:30.389Z,3.90
2017-12-08T20:18:58.037Z,3.90
2017-12-08T20:21:25.656Z,3.90
2017-12-08T20:23:53.201Z,3.90
2017-12-08T20:26:20.857Z,3.90
2017-12-08T20:28:48.436Z,3.90
2017-12-08T20:31:16.029Z,3.80
2017-12-08T20:33:43.759Z,3.80
2017-12-08T20:36:11.341Z,3.80
2017-12-08T20:38:38.951Z,3.80
2017-12-08T20:41:06.555Z,3.80
2017-12-08T20:43:34.299Z,3.70
2017-12-08T20:46:01.977Z,3.80
2017-12-08T20:48:29.923Z,3.70
2017-12-08T20:50:57.561Z,3.70
2017-12-08T20:53:25.189Z,3.70
2017-12-08T20:55:52.859Z,3.70
2017-12-08T20:58:20.555Z,3.70
2017-12-08T21:00:48.309Z,3.70
2017-12-08T21:03:16.681Z,3.70
2017-12-08T21:05:45.110Z,3.70
2017-12-08T21:08:12.667Z,3.70
2017-12-08T21:10:40.293Z,3.70
2017-12-08T21:13:07.864Z,3.60
2017-12-08T21:15:35.476Z,3.60
2017-12-08T21:18:03.152Z,3.60
2017-12-08T21:20:31.483Z,3.60
2017-12-08T21:22:59.121Z,3.60
2017-12-08T21:25:26.750Z,3.60
2017-12-08T21:27:55.149Z,3.50
2017-12-08T21:30:23.493Z,3.60
2017-12-08T21:32:51.132Z,3.60
2017-12-08T21:35:18.788Z,3.60
2017-12-08T21:37:46.409Z,3.60
2017-12-08T21:40:14.817Z,3.60
2017-12-08T21:42:42.418Z,3.60
2017-12-08T21:45:10.045Z,3.60
2017-12-08T21:47:37.625Z,3.50
2017-12-08T21:50:05.217Z,3.60
2017-12-08T21:52:33.640Z,3.60
2017-12-08T21:55:01.296Z,3.50
2017-12-08T21:57:28.951Z,3.50
2017-12-08T21:59:56.638Z,3.50
2017-12-08T22:02:25.014Z,3.50
2017-12-08T22:04:52.645Z,3.50
2017-12-08T22:07:20.294Z,3.50
2017-12-08T22:09:48.684Z,3.40
2017-12-08T22:12:17.084Z,3.40
2017-12-08T22:14:44.710Z,3.40
2017-12-08T22:17:12.503Z,3.40
2017-12-08T22:19:40.124Z,3.40
2017-12-08T22:22:08.484Z,3.40
2017-12-08T22:24:36.063Z,3.30
2017-12-08T22:27:04.516Z,3.30
2017-12-08T22:29:32.188Z,3.30
2017-12-08T22:31:59.812Z,3.30
2017-12-08T22:34:28.096Z,3.30
2017-12-08T22:36:56.107Z,3.30
2017-12-08T22:39:23.708Z,3.30
2017-12-08T22:41:52.765Z,3.30
2017-12-08T22:44:21.098Z,3.30
2017-12-08T22:46:48.707Z,3.30
2017-12-08T22:49:17.129Z,3.20
2017-12-08T22:51:44.736Z,3.20
2017-12-08T22:54:12.341Z,3.20
2017-12-08T22:56:40.668Z,3.20
2017-12-08T22:59:08.382Z,3.20
2017-12-08T23:01:36.202Z,3.20
2017-12-08T23:04:03.884Z,3.20
2017-12-08T23:06:32.288Z,3.10
2017-12-08T23:08:59.875Z,3.10
2017-12-08T23:11:27.480Z,3.10
2017-12-08T23:13:55.904Z,3.10
2017-12-08T23:16:23.554Z,3.10
2017-12-08T23:18:51.162Z,3.10
2017-12-08T23:21:18.728Z,3.10
2017-12-08T23:23:46.587Z,3.00
2017-12-08T23:26:14.185Z,3.00
2017-12-08T23:28:41.849Z,3.00
2017-12-08T23:31:09.471Z,3.00
2017-12-08T23:33:37.673Z,3.00
2017-12-08T23:36:05.387Z,3.00
2017-12-08T23:38:33.036Z,3.00
2017-12-08T23:41:00.637Z,3.00
2017-12-08T23:43:29.078Z,3.00
2017-12-08T23:45:56.682Z,3.00
2017-12-08T23:48:25.062Z,3.00
2017-12-08T23:50:52.690Z,2.90
2017-12-08T23:53:20.283Z,2.90
2017-12-08T23:55:48.700Z,2.90
2017-12-08T23:58:16.288Z,2.80
